createdAt,value
2023-05-02T00:00:12.819Z,100.00
2023-05-02T00:01:09.540Z,100.00
2023-05-02T00:02:06.532Z,100.00
2023-05-02T00:03:05.712Z,100.00
2023-05-02T00:04:03.573Z,100.00
2023-05-02T00:05:01.177Z,100.00
2023-05-02T00:05:58.155Z,100.00
2023-05-02T00:06:55.130Z,100.00
2023-05-02T00:07:52.037Z,100.00
2023-05-02T00:08:50.119Z,100.00
2023-05-02T00:09:47.349Z,100.00
2023-05-02T00:10:44.325Z,100.00
2023-05-02T00:11:41.120Z,100.00
2023-05-02T00:12:38.823Z,100.00
2023-05-02T00:13:35.747Z,100.00
2023-05-02T00:14:33.041Z,100.00
2023-05-02T00:15:29.891Z,100.00
2023-05-02T00:16:26.661Z,100.00
2023-05-02T00:17:23.596Z,100.00
2023-05-02T00:18:20.557Z,100.00
2023-05-02T00:19:19.915Z,100.00
2023-05-02T00:20:16.673Z,100.00
2023-05-02T00:21:14.115Z,100.00
2023-05-02T00:22:10.927Z,100.00
2023-05-02T00:23:07.799Z,100.00
2023-05-02T00:24:05.047Z,100.00
2023-05-02T00:25:02.438Z,100.00
2023-05-02T00:25:59.141Z,100.00
2023-05-02T00:26:55.905Z,100.00
2023-05-02T00:27:53.047Z,100.00
2023-05-02T00:28:50.121Z,100.00
2023-05-02T00:29:47.993Z,100.00
2023-05-02T00:30:46.348Z,100.00
2023-05-02T00:31:43.281Z,100.00
2023-05-02T00:32:40.752Z,100.00
2023-05-02T00:33:37.631Z,100.00
2023-05-02T00:34:34.440Z,100.00
2023-05-02T00:35:33.697Z,100.00
2023-05-02T00:36:30.461Z,100.00
2023-05-02T00:37:28.663Z,100.00
2023-05-02T00:38:25.463Z,100.00
2023-05-02T00:39:22.485Z,100.00
2023-05-02T00:40:19.280Z,100.00
2023-05-02T00:41:17.440Z,100.00
2023-05-02T00:42:14.244Z,100.00
2023-05-02T00:43:11.055Z,100.00
2023-05-02T00:44:08.583Z,100.00
2023-05-02T00:45:06.686Z,100.00
2023-05-02T00:46:03.763Z,100.00
2023-05-02T00:47:02.066Z,100.00
2023-05-02T00:47:58.987Z,100.00
2023-05-02T00:48:55.775Z,100.00
2023-05-02T00:49:52.622Z,100.00
2023-05-02T00:50:49.366Z,100.00
2023-05-02T00:51:46.282Z,100.00
2023-05-02T00:52:43.605Z,100.00
2023-05-02T00:53:41.895Z,100.00
2023-05-02T00:54:39.725Z,100.00
2023-05-02T00:55:37.039Z,100.00
2023-05-02T00:56:33.794Z,100.00
2023-05-02T00:57:30.602Z,100.00
2023-05-02T00:58:29.498Z,100.00
2023-05-02T00:59:27.174Z,100.00
2023-05-02T01:00:36.844Z,100.00
2023-05-02T01:02:05.437Z,100.00
2023-05-02T01:03:31.462Z,100.00
2023-05-02T01:04:46.082Z,100.00
2023-05-02T01:05:54.762Z,100.00
2023-05-02T01:07:24.440Z,100.00
2023-05-02T01:08:57.148Z,100.00
2023-05-02T01:10:09.232Z,100.00
2023-05-02T01:11:16.429Z,100.00
2023-05-02T01:12:33.430Z,100.00
2023-05-02T01:13:35.026Z,100.00
2023-05-02T01:14:36.403Z,100.00
2023-05-02T01:15:37.454Z,100.00
2023-05-02T01:16:42.257Z,100.00
2023-05-02T01:17:41.687Z,100.00
2023-05-02T01:18:42.192Z,100.00
2023-05-02T01:19:44.634Z,100.00
2023-05-02T01:20:46.607Z,100.00
2023-05-02T01:21:44.302Z,100.00
2023-05-02T01:22:41.761Z,100.00
2023-05-02T01:23:38.477Z,100.00
2023-05-02T01:25:02.253Z,100.00
2023-05-02T01:26:07.746Z,100.00
2023-05-02T01:27:22.420Z,100.00
2023-05-02T01:28:29.257Z,100.00
2023-05-02T01:29:29.622Z,100.00
2023-05-02T01:30:29.537Z,100.00
2023-05-02T01:31:33.222Z,100.00
2023-05-02T01:32:34.963Z,100.00
2023-05-02T01:33:36.027Z,100.00
2023-05-02T01:34:35.917Z,100.00
2023-05-02T01:35:37.426Z,100.00
2023-05-02T01:36:36.285Z,100.00
2023-05-02T01:37:36.780Z,100.00
2023-05-02T01:38:36.240Z,100.00
2023-05-02T01:39:38.197Z,100.00
2023-05-02T01:40:38.301Z,100.00
2023-05-02T01:41:38.124Z,100.00
2023-05-02T01:42:38.182Z,100.00
2023-05-02T01:43:38.126Z,100.00
2023-05-02T01:44:37.578Z,100.00
2023-05-02T01:45:38.105Z,100.00
2023-05-02T01:46:40.318Z,100.00
2023-05-02T01:47:40.801Z,100.00
2023-05-02T01:48:37.799Z,100.00
2023-05-02T01:49:37.015Z,100.00
2023-05-02T01:50:34.475Z,100.00
2023-05-02T01:51:35.436Z,100.00
2023-05-02T01:52:33.297Z,100.00
2023-05-02T01:53:33.942Z,100.00
2023-05-02T01:54:33.686Z,100.00
2023-05-02T01:55:36.094Z,100.00
2023-05-02T01:56:38.670Z,100.00
2023-05-02T01:57:39.963Z,100.00
2023-05-02T01:58:39.855Z,100.00
2023-05-02T01:59:40.871Z,100.00
2023-05-02T02:00:39.265Z,100.00
2023-05-02T02:01:39.247Z,100.00
2023-05-02T02:02:39.470Z,100.00
2023-05-02T02:03:36.298Z,100.00
2023-05-02T02:04:37.689Z,100.00
2023-05-02T02:05:37.179Z,100.00
2023-05-02T02:06:34.259Z,100.00
2023-05-02T02:07:31.872Z,100.00
2023-05-02T02:08:28.675Z,100.00
2023-05-02T02:09:25.888Z,100.00
2023-05-02T02:10:29.638Z,100.00
2023-05-02T02:11:47.288Z,100.00
2023-05-02T02:12:54.976Z,100.00
2023-05-02T02:14:06.471Z,100.00
2023-05-02T02:15:06.989Z,100.00
2023-05-02T02:16:09.155Z,100.00
2023-05-02T02:17:13.819Z,100.00
2023-05-02T02:18:18.623Z,100.00
2023-05-02T02:19:15.905Z,100.00
2023-05-02T02:20:15.941Z,100.00
2023-05-02T02:21:19.158Z,100.00
2023-05-02T02:22:21.491Z,100.00
2023-05-02T02:23:22.868Z,100.00
2023-05-02T02:24:22.799Z,100.00
2023-05-02T02:25:20.345Z,100.00
2023-05-02T02:26:21.167Z,100.00
2023-05-02T02:27:18.298Z,100.00
2023-05-02T02:28:15.190Z,100.00
2023-05-02T02:29:12.520Z,100.00
2023-05-02T02:30:10.399Z,100.00
2023-05-02T02:31:07.496Z,100.00
2023-05-02T02:32:04.316Z,100.00
2023-05-02T02:33:01.058Z,100.00
2023-05-02T02:33:58.331Z,100.00
2023-05-02T02:34:55.515Z,100.00
2023-05-02T02:36:05.814Z,100.00
2023-05-02T02:37:14.439Z,100.00
2023-05-02T02:38:35.464Z,100.00
2023-05-02T02:39:59.835Z,100.00
2023-05-02T02:41:06.604Z,100.00
2023-05-02T02:42:32.847Z,100.00
2023-05-02T02:44:13.664Z,100.00
2023-05-02T02:45:36.597Z,100.00
2023-05-02T02:46:42.426Z,100.00
2023-05-02T02:47:50.589Z,100.00
2023-05-02T02:49:15.557Z,100.00
2023-05-02T02:50:25.589Z,100.00
2023-05-02T02:51:38.960Z,100.00
2023-05-02T02:52:50.392Z,100.00
2023-05-02T02:54:27.117Z,100.00
2023-05-02T02:55:44.623Z,100.00
2023-05-02T02:56:51.014Z,100.00
2023-05-02T02:57:58.085Z,100.00
2023-05-02T02:58:57.823Z,100.00
2023-05-02T03:00:07.180Z,100.00
2023-05-02T03:01:07.689Z,100.00
2023-05-02T03:02:09.612Z,100.00
2023-05-02T03:03:08.140Z,100.00
2023-05-02T03:04:07.256Z,100.00
2023-05-02T03:05:06.543Z,100.00
2023-05-02T03:06:04.890Z,100.00
2023-05-02T03:07:02.291Z,100.00
2023-05-02T03:08:01.046Z,100.00
2023-05-02T03:08:58.563Z,100.00
2023-05-02T03:09:55.592Z,100.00
2023-05-02T03:10:52.460Z,100.00
2023-05-02T03:11:49.253Z,100.00
2023-05-02T03:12:46.071Z,100.00
2023-05-02T03:13:42.864Z,100.00
2023-05-02T03:14:40.689Z,100.00
2023-05-02T03:15:53.331Z,100.00
2023-05-02T03:16:51.005Z,100.00
2023-05-02T03:17:47.799Z,100.00
2023-05-02T03:18:44.811Z,100.00
2023-05-02T03:19:41.556Z,100.00
2023-05-02T03:20:38.345Z,100.00
2023-05-02T03:21:35.480Z,100.00
2023-05-02T03:22:32.209Z,100.00
2023-05-02T03:23:28.984Z,100.00
2023-05-02T03:24:27.728Z,100.00
2023-05-02T03:25:24.493Z,100.00
2023-05-02T03:26:21.351Z,100.00
2023-05-02T03:27:18.105Z,100.00
2023-05-02T03:28:15.027Z,100.00
2023-05-02T03:29:11.811Z,100.00
2023-05-02T03:30:09.211Z,100.00
2023-05-02T03:31:06.002Z,100.00
2023-05-02T03:32:02.953Z,100.00
2023-05-02T03:33:00.595Z,100.00
2023-05-02T03:33:57.393Z,100.00
2023-05-02T03:34:58.484Z,100.00
2023-05-02T03:35:55.303Z,100.00
2023-05-02T03:36:52.044Z,100.00
2023-05-02T03:37:48.848Z,100.00
2023-05-02T03:38:45.720Z,100.00
2023-05-02T03:39:42.606Z,100.00
2023-05-02T03:40:39.362Z,100.00
2023-05-02T03:41:36.145Z,100.00
2023-05-02T03:42:39.921Z,100.00
2023-05-02T03:43:37.740Z,100.00
2023-05-02T03:44:34.454Z,100.00
2023-05-02T03:45:31.460Z,100.00
2023-05-02T03:46:28.249Z,100.00
2023-05-02T03:47:25.049Z,100.00
2023-05-02T03:48:22.352Z,100.00
2023-05-02T03:49:19.800Z,100.00
2023-05-02T03:50:16.732Z,100.00
2023-05-02T03:51:14.488Z,100.00
2023-05-02T03:52:11.379Z,100.00
2023-05-02T03:53:10.131Z,100.00
2023-05-02T03:54:07.622Z,100.00
2023-05-02T03:55:05.966Z,100.00
2023-05-02T03:56:02.718Z,100.00
2023-05-02T03:56:59.620Z,100.00
2023-05-02T03:57:56.642Z,100.00
2023-05-02T03:58:54.000Z,100.00
2023-05-02T03:59:50.729Z,100.00
2023-05-02T04:00:47.620Z,100.00
2023-05-02T04:01:44.363Z,100.00
2023-05-02T04:03:01.307Z,100.00
2023-05-02T04:03:58.257Z,100.00
2023-05-02T04:04:55.014Z,100.00
2023-05-02T04:05:51.880Z,100.00
2023-05-02T04:06:48.897Z,100.00
2023-05-02T04:07:45.726Z,100.00
2023-05-02T04:08:42.670Z,100.00
2023-05-02T04:09:39.394Z,100.00
2023-05-02T04:10:36.258Z,100.00
2023-05-02T04:11:33.206Z,100.00
2023-05-02T04:12:30.055Z,100.00
2023-05-02T04:13:26.863Z,100.00
2023-05-02T04:14:23.527Z,100.00
2023-05-02T04:15:20.326Z,100.00
2023-05-02T04:16:17.157Z,100.00
2023-05-02T04:17:16.013Z,100.00
2023-05-02T04:18:12.964Z,100.00
2023-05-02T04:19:09.903Z,100.00
2023-05-02T04:20:07.789Z,100.00
2023-05-02T04:21:04.875Z,100.00
2023-05-02T04:22:02.882Z,100.00
2023-05-02T04:22:59.725Z,100.00
2023-05-02T04:23:56.509Z,100.00
2023-05-02T04:24:53.942Z,100.00
2023-05-02T04:25:54.615Z,100.00
2023-05-02T04:26:51.672Z,100.00
2023-05-02T04:27:48.515Z,100.00
2023-05-02T04:28:45.350Z,100.00
2023-05-02T04:29:42.129Z,100.00
2023-05-02T04:30:39.025Z,100.00
2023-05-02T04:31:36.489Z,100.00
2023-05-02T04:32:33.930Z,100.00
2023-05-02T04:33:31.605Z,100.00
2023-05-02T04:34:28.494Z,100.00
2023-05-02T04:35:25.538Z,100.00
2023-05-02T04:36:22.621Z,100.00
2023-05-02T04:37:20.806Z,100.00
2023-05-02T04:38:18.061Z,100.00
2023-05-02T04:39:14.874Z,100.00
2023-05-02T04:40:12.595Z,100.00
2023-05-02T04:41:09.841Z,100.00
2023-05-02T04:42:07.012Z,100.00
2023-05-02T04:43:03.923Z,100.00
2023-05-02T04:44:00.754Z,100.00
2023-05-02T04:44:57.517Z,100.00
2023-05-02T04:45:54.281Z,100.00
2023-05-02T04:46:51.560Z,100.00
2023-05-02T04:47:48.370Z,100.00
2023-05-02T04:48:45.236Z,100.00
2023-05-02T04:49:43.049Z,100.00
2023-05-02T04:50:39.811Z,100.00
2023-05-02T04:51:36.666Z,100.00
2023-05-02T04:52:33.443Z,100.00
2023-05-02T04:53:30.234Z,100.00
2023-05-02T04:54:27.968Z,100.00
2023-05-02T04:55:24.723Z,100.00
2023-05-02T04:56:21.995Z,100.00
2023-05-02T04:57:19.243Z,100.00
2023-05-02T04:58:16.808Z,100.00
2023-05-02T04:59:13.515Z,100.00
2023-05-02T05:00:10.809Z,100.00
2023-05-02T05:01:07.906Z,100.00
2023-05-02T05:02:05.149Z,100.00
2023-05-02T05:03:02.498Z,100.00
2023-05-02T05:03:59.549Z,100.00
2023-05-02T05:04:56.722Z,100.00
2023-05-02T05:05:53.615Z,100.00
2023-05-02T05:06:50.532Z,100.00
2023-05-02T05:07:47.351Z,100.00
2023-05-02T05:08:45.735Z,100.00
2023-05-02T05:09:42.553Z,100.00
2023-05-02T05:10:40.563Z,100.00
2023-05-02T05:11:38.680Z,100.00
2023-05-02T05:12:35.422Z,100.00
2023-05-02T05:13:32.595Z,100.00
2023-05-02T05:14:31.320Z,100.00
2023-05-02T05:15:28.157Z,100.00
2023-05-02T05:16:25.160Z,100.00
2023-05-02T05:17:23.004Z,100.00
2023-05-02T05:18:19.808Z,100.00
2023-05-02T05:19:16.574Z,100.00
2023-05-02T05:20:13.595Z,100.00
2023-05-02T05:21:11.337Z,100.00
2023-05-02T05:22:08.475Z,100.00
2023-05-02T05:23:05.309Z,100.00
2023-05-02T05:24:02.334Z,100.00
2023-05-02T05:24:59.166Z,100.00
2023-05-02T05:25:55.889Z,100.00
2023-05-02T05:26:52.693Z,100.00
2023-05-02T05:27:49.506Z,100.00
2023-05-02T05:28:46.266Z,100.00
2023-05-02T05:29:43.039Z,100.00
2023-05-02T05:30:39.820Z,100.00
2023-05-02T05:31:37.255Z,100.00
2023-05-02T05:32:34.141Z,100.00
2023-05-02T05:33:31.003Z,100.00
2023-05-02T05:34:27.813Z,100.00
2023-05-02T05:35:25.727Z,100.00
2023-05-02T05:36:23.739Z,100.00
2023-05-02T05:37:21.535Z,100.00
2023-05-02T05:38:18.269Z,100.00
2023-05-02T05:39:15.488Z,100.00
2023-05-02T05:40:12.527Z,100.00
2023-05-02T05:41:09.523Z,100.00
2023-05-02T05:42:06.538Z,100.00
2023-05-02T05:43:03.251Z,100.00
2023-05-02T05:44:00.193Z,100.00
2023-05-02T05:44:56.999Z,100.00
2023-05-02T05:45:54.739Z,100.00
2023-05-02T05:46:51.557Z,100.00
2023-05-02T05:47:48.436Z,100.00
2023-05-02T05:48:45.173Z,100.00
2023-05-02T05:49:41.972Z,100.00
2023-05-02T05:50:39.640Z,100.00
2023-05-02T05:51:36.413Z,100.00
2023-05-02T05:52:33.196Z,100.00
2023-05-02T05:53:30.290Z,100.00
2023-05-02T05:54:26.983Z,100.00
2023-05-02T05:55:23.720Z,100.00
2023-05-02T05:56:20.531Z,100.00
2023-05-02T05:57:17.259Z,100.00
2023-05-02T05:58:14.128Z,100.00
2023-05-02T05:59:10.954Z,100.00
2023-05-02T06:00:08.388Z,100.00
2023-05-02T06:01:05.397Z,100.00
2023-05-02T06:02:02.277Z,100.00
2023-05-02T06:02:59.175Z,100.00
2023-05-02T06:03:56.418Z,100.00
2023-05-02T06:04:53.271Z,100.00
2023-05-02T06:05:50.393Z,100.00
2023-05-02T06:06:47.261Z,100.00
2023-05-02T06:07:44.044Z,100.00
2023-05-02T06:08:40.833Z,100.00
2023-05-02T06:09:37.612Z,100.00
2023-05-02T06:10:35.053Z,100.00
2023-05-02T06:11:31.890Z,100.00
2023-05-02T06:12:28.607Z,100.00
2023-05-02T06:13:26.251Z,100.00
2023-05-02T06:14:23.018Z,100.00
2023-05-02T06:15:19.733Z,100.00
2023-05-02T06:16:16.680Z,100.00
2023-05-02T06:17:13.734Z,100.00
2023-05-02T06:18:10.575Z,100.00
2023-05-02T06:19:07.303Z,100.00
2023-05-02T06:20:04.376Z,100.00
2023-05-02T06:21:06.934Z,100.00
2023-05-02T06:22:03.786Z,100.00
2023-05-02T06:23:00.560Z,100.00
2023-05-02T06:23:57.342Z,100.00
2023-05-02T06:24:54.013Z,100.00
2023-05-02T06:25:50.768Z,100.00
2023-05-02T06:26:47.633Z,100.00
2023-05-02T06:27:44.360Z,100.00
2023-05-02T06:28:41.147Z,100.00
2023-05-02T06:29:38.108Z,100.00
2023-05-02T06:30:35.143Z,100.00
2023-05-02T06:31:31.931Z,100.00
2023-05-02T06:32:32.363Z,100.00
2023-05-02T06:33:29.864Z,100.00
2023-05-02T06:34:26.758Z,100.00
2023-05-02T06:35:23.526Z,100.00
2023-05-02T06:36:20.372Z,100.00
2023-05-02T06:37:17.079Z,100.00
2023-05-02T06:38:13.776Z,100.00
2023-05-02T06:39:10.499Z,100.00
2023-05-02T06:40:08.021Z,100.00
2023-05-02T06:41:04.784Z,100.00
2023-05-02T06:42:01.518Z,100.00
2023-05-02T06:42:58.308Z,100.00
2023-05-02T06:43:55.275Z,100.00
2023-05-02T06:44:52.053Z,100.00
2023-05-02T06:45:48.930Z,100.00
2023-05-02T06:46:45.783Z,100.00
2023-05-02T06:47:42.655Z,100.00
2023-05-02T06:48:39.394Z,100.00
2023-05-02T06:49:36.127Z,100.00
2023-05-02T06:50:33.222Z,100.00
2023-05-02T06:51:31.625Z,100.00
2023-05-02T06:52:28.413Z,100.00
2023-05-02T06:53:25.250Z,100.00
2023-05-02T06:54:22.142Z,100.00
2023-05-02T06:55:18.916Z,100.00
2023-05-02T06:56:15.885Z,100.00
2023-05-02T06:57:12.771Z,100.00
2023-05-02T06:58:09.606Z,100.00
2023-05-02T06:59:06.476Z,100.00
2023-05-02T07:00:04.351Z,100.00
2023-05-02T07:01:04.088Z,100.00
2023-05-02T07:02:02.957Z,100.00
2023-05-02T07:03:01.239Z,100.00
2023-05-02T07:03:58.229Z,100.00
2023-05-02T07:04:55.127Z,100.00
2023-05-02T07:05:51.869Z,100.00
2023-05-02T07:06:48.835Z,100.00
2023-05-02T07:07:45.769Z,100.00
2023-05-02T07:08:42.558Z,100.00
2023-05-02T07:09:39.333Z,100.00
2023-05-02T07:10:36.129Z,100.00
2023-05-02T07:11:32.864Z,100.00
2023-05-02T07:12:29.704Z,100.00
2023-05-02T07:13:26.623Z,100.00
2023-05-02T07:14:23.479Z,100.00
2023-05-02T07:15:20.197Z,100.00
2023-05-02T07:16:16.972Z,100.00
2023-05-02T07:17:14.018Z,100.00
2023-05-02T07:18:10.843Z,100.00
2023-05-02T07:19:07.652Z,100.00
2023-05-02T07:20:05.138Z,100.00
2023-05-02T07:21:02.136Z,100.00
2023-05-02T07:21:58.953Z,100.00
2023-05-02T07:22:56.259Z,100.00
2023-05-02T07:23:55.318Z,100.00
2023-05-02T07:25:02.740Z,100.00
2023-05-02T07:25:59.646Z,100.00
2023-05-02T07:26:56.663Z,100.00
2023-05-02T07:27:53.478Z,100.00
2023-05-02T07:28:50.221Z,100.00
2023-05-02T07:30:06.670Z,100.00
2023-05-02T07:31:04.840Z,100.00
2023-05-02T07:32:01.894Z,100.00
2023-05-02T07:32:58.843Z,100.00
2023-05-02T07:33:55.749Z,100.00
2023-05-02T07:34:57.096Z,100.00
2023-05-02T07:35:53.967Z,100.00
2023-05-02T07:36:50.856Z,100.00
2023-05-02T07:37:47.671Z,100.00
2023-05-02T07:38:44.503Z,100.00
2023-05-02T07:39:41.403Z,100.00
2023-05-02T07:40:38.216Z,100.00
2023-05-02T07:41:34.985Z,100.00
2023-05-02T07:42:31.924Z,100.00
2023-05-02T07:43:28.751Z,100.00
2023-05-02T07:44:25.783Z,100.00
2023-05-02T07:45:22.567Z,100.00
2023-05-02T07:46:19.412Z,100.00
2023-05-02T07:47:16.220Z,100.00
2023-05-02T07:48:13.010Z,100.00
2023-05-02T07:49:09.851Z,100.00
2023-05-02T07:50:07.095Z,100.00
2023-05-02T07:51:08.847Z,100.00
2023-05-02T07:52:05.979Z,100.00
2023-05-02T07:53:02.841Z,100.00
2023-05-02T07:53:59.808Z,100.00
2023-05-02T07:54:56.581Z,100.00
2023-05-02T07:55:53.370Z,100.00
2023-05-02T07:56:50.142Z,100.00
2023-05-02T07:57:46.912Z,100.00
2023-05-02T07:58:43.690Z,100.00
2023-05-02T07:59:40.580Z,100.00
2023-05-02T08:00:37.340Z,100.00
2023-05-02T08:01:34.050Z,99.95
2023-05-02T08:02:30.920Z,99.82
2023-05-02T08:03:28.224Z,99.24
2023-05-02T08:04:25.419Z,100.00
2023-05-02T08:05:22.632Z,100.00
2023-05-02T08:06:19.589Z,100.00
2023-05-02T08:07:17.113Z,98.37
2023-05-02T08:08:13.872Z,97.01
2023-05-02T08:09:10.622Z,97.05
2023-05-02T08:10:08.720Z,96.41
2023-05-02T08:11:05.763Z,99.90
2023-05-02T08:12:03.334Z,96.04
2023-05-02T08:13:00.246Z,94.07
2023-05-02T08:13:57.091Z,92.48
2023-05-02T08:14:54.368Z,93.75
2023-05-02T08:15:51.242Z,93.43
2023-05-02T08:16:48.151Z,94.62
2023-05-02T08:17:45.044Z,94.92
2023-05-02T08:18:41.861Z,95.47
2023-05-02T08:19:38.716Z,94.36
2023-05-02T08:20:35.562Z,92.34
2023-05-02T08:21:32.522Z,92.41
2023-05-02T08:22:29.263Z,89.36
2023-05-02T08:23:26.036Z,89.76
2023-05-02T08:24:23.054Z,89.90
2023-05-02T08:25:19.906Z,89.75
2023-05-02T08:26:18.987Z,89.93
2023-05-02T08:27:15.821Z,93.77
2023-05-02T08:28:12.691Z,93.12
2023-05-02T08:29:11.823Z,97.78
2023-05-02T08:30:09.090Z,98.37
2023-05-02T08:31:06.083Z,97.50
2023-05-02T08:32:03.021Z,96.82
2023-05-02T08:32:59.909Z,92.91
2023-05-02T08:33:56.820Z,92.76
2023-05-02T08:34:59.402Z,92.89
2023-05-02T08:35:56.355Z,91.84
2023-05-02T08:36:53.159Z,90.05
2023-05-02T08:37:50.001Z,89.57
2023-05-02T08:38:47.547Z,92.20
2023-05-02T08:39:44.278Z,90.24
2023-05-02T08:40:42.669Z,89.37
2023-05-02T08:41:40.267Z,88.28
2023-05-02T08:42:41.455Z,87.63
2023-05-02T08:43:40.147Z,89.66
2023-05-02T08:44:37.446Z,89.91
2023-05-02T08:45:42.863Z,85.59
2023-05-02T08:46:43.428Z,86.76
2023-05-02T08:47:44.863Z,86.22
2023-05-02T08:48:43.808Z,86.62
2023-05-02T08:49:41.337Z,84.90
2023-05-02T08:50:45.390Z,84.34
2023-05-02T08:51:46.393Z,82.34
2023-05-02T08:52:45.309Z,81.91
2023-05-02T08:53:42.259Z,80.12
2023-05-02T08:54:39.738Z,81.28
2023-05-02T08:55:43.316Z,82.51
2023-05-02T08:56:42.269Z,82.01
2023-05-02T08:57:41.475Z,83.44
2023-05-02T08:58:40.390Z,81.18
2023-05-02T08:59:37.203Z,78.79
2023-05-02T09:00:42.527Z,80.14
2023-05-02T09:01:44.783Z,81.05
2023-05-02T09:03:00.188Z,81.24
2023-05-02T09:03:59.010Z,80.18
2023-05-02T09:05:07.592Z,79.25
2023-05-02T09:06:19.920Z,78.75
2023-05-02T09:07:16.781Z,80.02
2023-05-02T09:08:22.227Z,77.83
2023-05-02T09:09:19.604Z,79.21
2023-05-02T09:10:16.491Z,77.60
2023-05-02T09:11:13.730Z,77.54
2023-05-02T09:12:10.527Z,75.59
2023-05-02T09:13:29.633Z,75.44
2023-05-02T09:14:26.441Z,79.66
2023-05-02T09:15:23.350Z,78.42
2023-05-02T09:16:25.801Z,76.36
2023-05-02T09:17:22.878Z,77.37
2023-05-02T09:18:23.442Z,76.84
2023-05-02T09:19:26.920Z,76.29
2023-05-02T09:20:23.821Z,77.45
2023-05-02T09:21:26.436Z,78.73
2023-05-02T09:22:23.960Z,79.79
2023-05-02T09:23:22.509Z,80.63
2023-05-02T09:24:21.671Z,79.65
2023-05-02T09:25:20.754Z,82.02
2023-05-02T09:26:37.975Z,82.58
2023-05-02T09:27:54.700Z,82.02
2023-05-02T09:28:55.880Z,80.11
2023-05-02T09:29:52.659Z,81.17
2023-05-02T09:30:49.437Z,81.36
2023-05-02T09:31:55.682Z,79.45
2023-05-02T09:32:56.830Z,80.26
2023-05-02T09:33:55.334Z,78.50
2023-05-02T09:35:06.710Z,77.21
2023-05-02T09:36:03.993Z,74.18
2023-05-02T09:37:01.567Z,72.80
2023-05-02T09:37:59.335Z,73.29
2023-05-02T09:39:13.714Z,74.58
2023-05-02T09:40:11.196Z,75.13
2023-05-02T09:41:08.167Z,75.59
2023-05-02T09:42:04.958Z,74.00
2023-05-02T09:43:15.729Z,73.00
2023-05-02T09:44:15.134Z,74.55
2023-05-02T09:45:21.026Z,77.00
2023-05-02T09:46:17.840Z,76.93
2023-05-02T09:47:25.205Z,74.80
2023-05-02T09:48:21.992Z,75.27
2023-05-02T09:49:19.665Z,71.55
2023-05-02T09:50:35.002Z,70.35
2023-05-02T09:51:32.243Z,72.13
2023-05-02T09:52:29.097Z,69.70
2023-05-02T09:53:27.870Z,70.37
2023-05-02T09:54:37.458Z,70.78
2023-05-02T09:55:34.578Z,70.53
2023-05-02T09:56:31.369Z,70.39
2023-05-02T09:57:41.694Z,70.53
2023-05-02T09:58:38.882Z,70.55
2023-05-02T09:59:35.686Z,68.67
2023-05-02T10:00:44.085Z,68.59
2023-05-02T10:01:42.400Z,68.29
2023-05-02T10:02:40.469Z,66.94
2023-05-02T10:03:41.443Z,66.85
2023-05-02T10:04:39.043Z,68.06
2023-05-02T10:05:40.467Z,65.51
2023-05-02T10:06:37.284Z,64.20
2023-05-02T10:07:35.026Z,64.82
2023-05-02T10:08:33.959Z,64.43
2023-05-02T10:09:33.076Z,65.46
2023-05-02T10:10:33.301Z,63.84
2023-05-02T10:11:33.899Z,63.40
2023-05-02T10:12:33.805Z,62.87
2023-05-02T10:13:34.534Z,61.04
2023-05-02T10:14:35.992Z,62.17
2023-05-02T10:15:34.710Z,63.32
2023-05-02T10:16:43.085Z,59.78
2023-05-02T10:17:48.143Z,61.52
2023-05-02T10:18:52.779Z,62.82
2023-05-02T10:20:04.478Z,61.76
2023-05-02T10:21:08.167Z,61.23
2023-05-02T10:22:06.033Z,61.67
2023-05-02T10:23:03.756Z,61.10
2023-05-02T10:24:04.094Z,60.50
2023-05-02T10:25:03.650Z,59.16
2023-05-02T10:26:00.869Z,60.07
2023-05-02T10:26:58.289Z,60.93
2023-05-02T10:28:00.291Z,60.02
2023-05-02T10:28:57.757Z,61.50
2023-05-02T10:29:58.865Z,61.06
2023-05-02T10:30:57.230Z,59.04
2023-05-02T10:31:54.136Z,59.06
2023-05-02T10:32:53.512Z,58.91
2023-05-02T10:33:54.996Z,57.59
2023-05-02T10:34:52.758Z,61.00
2023-05-02T10:35:50.443Z,59.82
2023-05-02T10:36:48.147Z,59.13
2023-05-02T10:37:47.856Z,57.20
2023-05-02T10:38:45.896Z,58.60
2023-05-02T10:39:42.694Z,59.06
2023-05-02T10:40:42.173Z,59.88
2023-05-02T10:41:41.802Z,60.42
2023-05-02T10:42:43.095Z,59.90
2023-05-02T10:43:42.182Z,61.07
2023-05-02T10:44:41.426Z,60.74
2023-05-02T10:45:38.266Z,60.07
2023-05-02T10:46:37.682Z,59.70
2023-05-02T10:47:36.960Z,60.43
2023-05-02T10:48:34.415Z,59.16
2023-05-02T10:49:31.332Z,59.06
2023-05-02T10:50:43.524Z,56.70
2023-05-02T10:51:42.544Z,56.92
2023-05-02T10:52:41.146Z,54.79
2023-05-02T10:53:40.401Z,56.15
2023-05-02T10:54:37.192Z,55.90
2023-05-02T10:55:34.054Z,55.63
2023-05-02T10:56:30.836Z,56.08
2023-05-02T10:57:27.633Z,56.75
2023-05-02T10:58:24.528Z,58.90
2023-05-02T10:59:29.298Z,56.92
2023-05-02T11:00:31.136Z,56.07
2023-05-02T11:01:36.431Z,57.37
2023-05-02T11:02:47.514Z,56.86
2023-05-02T11:04:06.709Z,54.51
2023-05-02T11:05:07.721Z,54.13
2023-05-02T11:06:07.027Z,54.75
2023-05-02T11:07:17.983Z,54.99
2023-05-02T11:08:20.153Z,55.00
2023-05-02T11:09:32.055Z,56.42
2023-05-02T11:10:28.880Z,53.93
2023-05-02T11:11:41.574Z,53.40
2023-05-02T11:12:46.530Z,52.67
2023-05-02T11:13:50.034Z,53.48
2023-05-02T11:14:48.515Z,53.29
2023-05-02T11:15:45.474Z,53.65
2023-05-02T11:17:00.958Z,53.22
2023-05-02T11:18:09.219Z,53.75
2023-05-02T11:19:06.285Z,53.84
2023-05-02T11:20:06.144Z,53.77
2023-05-02T11:21:32.829Z,53.59
2023-05-02T11:22:34.159Z,53.48
2023-05-02T11:23:30.989Z,54.22
2023-05-02T11:24:40.610Z,56.30
2023-05-02T11:25:41.679Z,54.76
2023-05-02T11:26:38.495Z,54.69
2023-05-02T11:27:41.472Z,54.06
2023-05-02T11:28:41.879Z,54.97
2023-05-02T11:29:59.548Z,52.83
2023-05-02T11:30:57.906Z,52.94
2023-05-02T11:31:56.090Z,51.49
2023-05-02T11:32:53.675Z,53.54
2023-05-02T11:34:03.738Z,52.79
2023-05-02T11:35:02.111Z,51.22
2023-05-02T11:35:59.410Z,51.00
2023-05-02T11:36:56.209Z,51.66
2023-05-02T11:37:56.687Z,50.99
2023-05-02T11:38:53.472Z,52.56
2023-05-02T11:39:51.599Z,52.98
2023-05-02T11:41:00.206Z,53.94
2023-05-02T11:41:57.112Z,53.97
2023-05-02T11:42:55.365Z,54.11
2023-05-02T11:44:03.722Z,52.79
2023-05-02T11:45:01.497Z,52.15
2023-05-02T11:46:00.158Z,50.48
2023-05-02T11:46:57.427Z,50.05
2023-05-02T11:47:54.328Z,50.65
2023-05-02T11:48:51.098Z,49.89
2023-05-02T11:49:48.064Z,50.30
2023-05-02T11:50:52.855Z,50.46
2023-05-02T11:51:49.743Z,50.53
2023-05-02T11:52:47.248Z,49.88
2023-05-02T11:53:44.667Z,50.25
2023-05-02T11:54:41.802Z,51.28
2023-05-02T11:55:44.757Z,50.99
2023-05-02T11:56:41.824Z,49.70
2023-05-02T11:57:40.055Z,49.97
2023-05-02T11:58:36.804Z,50.01
2023-05-02T11:59:53.171Z,49.20
2023-05-02T12:00:51.736Z,50.15
2023-05-02T12:01:50.263Z,51.19
2023-05-02T12:02:49.863Z,51.39
2023-05-02T12:03:52.551Z,50.90
2023-05-02T12:04:49.549Z,51.60
2023-05-02T12:05:46.435Z,50.66
2023-05-02T12:06:57.199Z,51.26
2023-05-02T12:07:54.114Z,51.96
2023-05-02T12:08:54.780Z,51.95
2023-05-02T12:09:53.562Z,52.17
2023-05-02T12:10:52.490Z,52.78
2023-05-02T12:11:53.664Z,52.52
2023-05-02T12:12:51.060Z,52.44
2023-05-02T12:13:50.466Z,51.17
2023-05-02T12:14:48.117Z,51.69
2023-05-02T12:15:45.577Z,52.29
2023-05-02T12:16:42.609Z,52.75
2023-05-02T12:17:43.058Z,52.76
2023-05-02T12:18:40.965Z,52.51
2023-05-02T12:19:38.111Z,52.53
2023-05-02T12:20:35.570Z,53.94
2023-05-02T12:21:33.483Z,53.44
2023-05-02T12:22:31.209Z,54.38
2023-05-02T12:23:28.228Z,53.56
2023-05-02T12:24:25.314Z,53.48
2023-05-02T12:25:22.283Z,52.95
2023-05-02T12:26:32.639Z,52.27
2023-05-02T12:27:29.812Z,52.61
2023-05-02T12:28:26.879Z,53.54
2023-05-02T12:29:38.251Z,53.25
2023-05-02T12:30:36.253Z,52.97
2023-05-02T12:31:33.166Z,53.10